Time;durP1;ratioP1;P1;durP2;ratioP2;P2;SDS_P1;SDS_P2;PMS_P1;PMS_P2;Temp;Humidity;BMP_temperature;BMP_pressure;BME280_temperature;BME280_humidity;BME280_pressure;Samples;Min_cycle;Max_cycle;Signal;HPM_P1;HPM_P2
2024/03/24 00:01:13;;;;;;;;;;;;;;;7.76;63.30;99244.06;4181189;28;19912;-69
2024/03/24 00:03:14;;;;;;;;;;;;;;;7.44;64.04;99253.31;4178216;28;20396;-69
2024/03/24 00:05:14;;;;;;;;;;;;;;;7.39;64.53;99251.06;4181411;28;19912;-68
2024/03/24 00:07:15;;;;;;;;;;;;;;;7.42;64.39;99248.09;4155647;28;19928;-69
2024/03/24 00:09:15;;;;;;;;;;;;;;;7.36;64.63;99250.53;4151922;28;19920;-69
2024/03/24 00:11:15;;;;;;;;;;;;;;;7.28;64.64;99254.72;4165860;28;19920;-68
2024/03/24 00:13:16;;;;;;;;;;;;;;;6.96;65.90;99250.56;4165109;28;20414;-69
2024/03/24 00:15:16;;;;;;;;;;;;;;;6.92;65.83;99254.47;4164691;28;19975;-68
2024/03/24 00:17:17;;;;;;;;;;;;;;;6.70;67.33;99259.13;4160408;28;19914;-70
2024/03/24 00:19:17;;;;;;;;;;;;;;;6.50;67.44;99260.06;4165073;28;20008;-68
2024/03/24 00:21:18;;;;;;;;;;;;;;;6.10;68.34;99253.81;4147455;28;20416;-69
2024/03/24 00:23:18;;;;;;;;;;;;;;;6.23;69.04;99253.59;4164835;28;20383;-70
2024/03/24 00:25:19;;;;;;;;;;;;;;;6.17;69.28;99259.44;4165546;28;19920;-69
2024/03/24 00:27:19;;;;;;;;;;;;;;;6.33;69.66;99253.59;4164644;28;19913;-69
2024/03/24 00:29:20;;;;;;;;;;;;;;;6.16;69.94;99255.09;4168584;28;19970;-68
2024/03/24 00:31:20;;;;;;;;;;;;;;;6.16;70.65;99255.09;4176716;28;19913;-69
2024/03/24 00:33:21;;;;;;;;;;;;;;;6.00;71.43;99248.50;4176569;28;19913;-70
2024/03/24 00:35:21;;;;;;;;;;;;;;;6.05;72.13;99251.56;4175913;28;19944;-68
2024/03/24 00:37:22;;;;;;;;;;;;;;;6.14;71.76;99243.81;4177537;28;19913;-69
2024/03/24 00:39:22;;;;;;;;;;;;;;;5.83;72.37;99247.28;4151808;28;19979;-70
2024/03/24 00:41:23;;;;;;;;;;;;;;;5.93;73.02;99244.69;4156720;28;19913;-69
2024/03/24 00:43:23;;;;;;;;;;;;;;;5.88;73.64;99239.78;4147444;28;19917;-72
2024/03/24 00:45:24;;;;;;;;;;;;;;;5.84;73.88;99237.53;4165727;28;20360;-70
2024/03/24 00:47:24;;;;;;;;;;;;;;;5.99;73.84;99241.50;4164889;28;19913;-69
2024/03/24 00:49:25;;;;;;;;;;;;;;;5.88;74.16;99237.13;4147344;28;20007;-70
2024/03/24 00:51:26;;;;;;;;;;;;;;;5.78;74.76;99239.72;4140693;28;20284;-70
2024/03/24 00:53:27;;;;;;;;;;;;;;;6.09;74.22;99228.28;4147643;28;19922;-69
2024/03/24 00:55:28;;;;;;;;;;;;;;;6.20;74.12;99228.16;4143283;28;19968;-69
2024/03/24 00:57:29;;;;;;;;;;;;;;;6.05;74.57;99232.19;4166238;28;19948;-69
2024/03/24 00:59:29;;;;;;;;;;;;;;;5.89;75.33;99217.59;4167266;28;19971;-69
2024/03/24 01:01:29;;;;;;;;;;;;;;;5.78;75.39;99220.34;4164831;28;19913;-69
2024/03/24 01:03:30;;;;;;;;;;;;;;;5.79;76.08;99216.72;4145931;28;19960;-69
2024/03/24 01:05:30;;;;;;;;;;;;;;;5.78;75.90;99213.19;4160275;28;19963;-70
2024/03/24 01:07:31;;;;;;;;;;;;;;;5.81;75.96;99216.56;4145148;28;19913;-68
2024/03/24 01:09:31;;;;;;;;;;;;;;;5.91;75.91;99218.25;4179653;28;19933;-69
2024/03/24 01:11:31;;;;;;;;;;;;;;;5.78;75.75;99207.91;4186527;28;19958;-70
2024/03/24 01:13:32;;;;;;;;;;;;;;;5.92;75.76;99212.00;4173478;28;20262;-69
2024/03/24 01:15:33;;;;;;;;;;;;;;;5.93;75.74;99212.84;4180607;28;19916;-69
2024/03/24 01:17:33;;;;;;;;;;;;;;;5.97;75.49;99211.59;4170506;28;20328;-70
2024/03/24 01:19:34;;;;;;;;;;;;;;;5.88;75.97;99204.44;4179501;28;19924;-70
2024/03/24 01:21:35;;;;;;;;;;;;;;;5.94;76.00;99211.88;4169370;28;19913;-71
2024/03/24 01:23:37;;;;;;;;;;;;;;;5.89;76.10;99208.78;4170219;28;19972;-70
2024/03/24 01:25:37;;;;;;;;;;;;;;;5.98;75.80;99215.91;4174873;28;19935;-70
2024/03/24 01:27:38;;;;;;;;;;;;;;;6.11;75.51;99206.91;4180504;28;19920;-69
2024/03/24 01:29:39;;;;;;;;;;;;;;;5.89;75.27;99200.81;4167637;28;19917;-70
2024/03/24 01:31:40;;;;;;;;;;;;;;;5.75;75.77;99191.41;4176424;28;20412;-69
2024/03/24 01:33:40;;;;;;;;;;;;;;;5.87;76.29;99194.78;4170657;28;19912;-69
2024/03/24 01:35:47;;;;;;;;;;;;;;;5.81;76.32;99198.00;4166603;28;19913;-70
2024/03/24 01:37:47;;;;;;;;;;;;;;;5.75;76.22;99179.00;4165459;28;19913;-70
2024/03/24 01:39:48;;;;;;;;;;;;;;;5.63;76.40;99177.44;4169263;28;20347;-67
2024/03/24 01:41:49;;;;;;;;;;;;;;;5.58;76.50;99166.38;4172016;28;19913;-70
2024/03/24 01:43:49;;;;;;;;;;;;;;;5.76;76.67;99175.34;4160788;28;19984;-67
2024/03/24 01:45:51;;;;;;;;;;;;;;;5.88;75.97;99167.31;4168564;28;20452;-67
2024/03/24 01:47:51;;;;;;;;;;;;;;;5.69;75.89;99168.94;4173212;28;19912;-69
2024/03/24 01:49:52;;;;;;;;;;;;;;;5.72;75.78;99173.97;4179739;28;19913;-69
2024/03/24 01:51:52;;;;;;;;;;;;;;;5.77;75.57;99169.09;4177018;28;20652;-70
2024/03/24 01:53:55;;;;;;;;;;;;;;;5.75;75.41;99168.41;4156630;28;20028;-70
2024/03/24 01:55:56;;;;;;;;;;;;;;;5.86;75.05;99155.97;4162326;28;20297;-72
2024/03/24 01:57:56;;;;;;;;;;;;;;;5.72;74.92;99159.84;4179523;28;19909;-68
2024/03/24 01:59:56;;;;;;;;;;;;;;;5.83;74.96;99156.28;4179035;28;20407;-68
2024/03/24 02:01:59;;;;;;;;;;;;;;;5.86;74.80;99151.53;4177827;28;19916;-71
2024/03/24 02:04:05;;;;;;;;;;;;;;;5.85;74.75;99146.38;4179609;28;19923;-69
2024/03/24 02:06:06;;;;;;;;;;;;;;;5.81;74.51;99153.72;4180131;28;19908;-68
2024/03/24 02:08:06;;;;;;;;;;;;;;;5.87;73.95;99152.34;4181352;28;19916;-68
2024/03/24 02:10:06;;;;;;;;;;;;;;;5.76;73.90;99151.50;4184031;28;19920;-70
2024/03/24 02:12:07;;;;;;;;;;;;;;;5.80;73.97;99153.88;4183567;28;19923;-70
2024/03/24 02:14:07;;;;;;;;;;;;;;;5.94;73.73;99145.56;4179171;28;19983;-68
2024/03/24 02:16:08;;;;;;;;;;;;;;;6.17;72.97;99148.81;4179380;28;19978;-69
2024/03/24 02:18:08;;;;;;;;;;;;;;;6.14;72.85;99145.59;4178472;28;19952;-70
2024/03/24 02:20:12;;;;;;;;;;;;;;;5.92;72.89;99147.50;4160064;28;19913;-69
2024/03/24 02:22:12;;;;;;;;;;;;;;;6.04;73.11;99149.09;4174430;28;19916;-70
2024/03/24 02:24:12;;;;;;;;;;;;;;;6.08;72.63;99139.03;4161822;28;19991;-69
2024/03/24 02:26:13;;;;;;;;;;;;;;;6.12;72.58;99139.59;4175842;28;20432;-69
2024/03/24 02:28:13;;;;;;;;;;;;;;;6.10;71.52;99137.06;4178374;28;20495;-69
2024/03/24 02:30:13;;;;;;;;;;;;;;;6.09;70.77;99130.09;4174067;28;20360;-70
2024/03/24 02:32:14;;;;;;;;;;;;;;;6.45;70.15;99129.53;4168277;28;20561;-69
2024/03/24 02:34:14;;;;;;;;;;;;;;;6.29;69.19;99128.28;4167473;28;19917;-70
2024/03/24 02:36:15;;;;;;;;;;;;;;;6.36;68.60;99121.44;4178991;28;19927;-70
2024/03/24 02:38:15;;;;;;;;;;;;;;;6.54;68.47;99112.75;4152697;28;19916;-70
2024/03/24 02:40:15;;;;;;;;;;;;;;;6.24;68.13;99122.53;4163326;28;19955;-69
2024/03/24 02:42:16;;;;;;;;;;;;;;;6.25;68.02;99121.56;4171409;28;19917;-68
2024/03/24 02:44:16;;;;;;;;;;;;;;;6.19;68.10;99122.13;4173633;28;20285;-68
2024/03/24 02:46:17;;;;;;;;;;;;;;;6.14;67.82;99119.06;4175742;28;20311;-68
2024/03/24 02:48:17;;;;;;;;;;;;;;;6.17;67.66;99118.78;4175624;28;19964;-68
2024/03/24 02:50:17;;;;;;;;;;;;;;;6.09;67.66;99109.69;4172323;28;19924;-70
2024/03/24 02:52:18;;;;;;;;;;;;;;;6.20;67.45;99115.84;4179130;28;19920;-69
2024/03/24 02:54:18;;;;;;;;;;;;;;;6.23;67.66;99104.97;4176556;28;19970;-69
2024/03/24 02:56:19;;;;;;;;;;;;;;;6.13;68.30;99106.78;4179068;28;19982;-70
2024/03/24 02:58:19;;;;;;;;;;;;;;;6.19;67.74;99098.25;4172472;28;19948;-69
2024/03/24 03:00:20;;;;;;;;;;;;;;;6.15;68.29;99096.84;4177130;28;20707;-69
2024/03/24 03:02:20;;;;;;;;;;;;;;;6.00;68.19;99104.41;4185182;28;19917;-69
2024/03/24 03:04:20;;;;;;;;;;;;;;;6.03;69.20;99114.72;4168131;28;19912;-70
2024/03/24 03:06:21;;;;;;;;;;;;;;;6.10;68.82;99110.53;4183193;28;20265;-71
2024/03/24 03:08:21;;;;;;;;;;;;;;;6.01;69.28;99111.34;4157446;28;19921;-71
2024/03/24 03:10:21;;;;;;;;;;;;;;;5.96;68.54;99110.91;4169819;28;19913;-69
2024/03/24 03:12:22;;;;;;;;;;;;;;;5.89;69.08;99105.31;4170430;28;19936;-71
2024/03/24 03:14:22;;;;;;;;;;;;;;;6.09;68.82;99107.03;4155350;28;19948;-69
2024/03/24 03:16:23;;;;;;;;;;;;;;;5.83;69.04;99113.84;4175704;28;20561;-69
2024/03/24 03:18:23;;;;;;;;;;;;;;;6.05;69.00;99110.94;4168770;28;20004;-69
2024/03/24 03:20:24;;;;;;;;;;;;;;;6.06;68.91;99109.97;4169311;28;19976;-70
2024/03/24 03:22:24;;;;;;;;;;;;;;;5.97;69.02;99116.06;4166089;28;20558;-69
2024/03/24 03:24:25;;;;;;;;;;;;;;;5.99;69.05;99103.53;4165892;28;19905;-69
2024/03/24 03:26:26;;;;;;;;;;;;;;;5.83;69.65;99106.69;4168735;28;19935;-69
2024/03/24 03:28:26;;;;;;;;;;;;;;;5.95;69.59;99096.81;4172062;28;20284;-70
2024/03/24 03:30:28;;;;;;;;;;;;;;;5.93;69.64;99091.63;4166744;28;20011;-69
2024/03/24 03:32:28;;;;;;;;;;;;;;;5.94;69.81;99103.09;4171166;28;19909;-70
2024/03/24 03:34:29;;;;;;;;;;;;;;;6.02;69.78;99090.00;4161389;28;19920;-70
2024/03/24 03:36:30;;;;;;;;;;;;;;;5.96;69.87;99095.00;4172755;28;20516;-70
2024/03/24 03:38:30;;;;;;;;;;;;;;;5.95;70.19;99091.53;4171252;28;19909;-71
2024/03/24 03:40:31;;;;;;;;;;;;;;;5.98;70.29;99093.03;4169044;28;20417;-69
2024/03/24 03:42:31;;;;;;;;;;;;;;;5.89;70.48;99098.22;4168514;28;20388;-70
2024/03/24 03:44:31;;;;;;;;;;;;;;;6.15;70.53;99092.38;4165941;28;19994;-70
2024/03/24 03:46:32;;;;;;;;;;;;;;;6.04;69.95;99092.50;4148147;28;20122;-69
2024/03/24 03:48:32;;;;;;;;;;;;;;;6.04;70.18;99098.69;4174980;28;19917;-69
2024/03/24 03:50:37;;;;;;;;;;;;;;;5.91;70.48;99106.03;4176430;28;20546;-71
2024/03/24 03:52:37;;;;;;;;;;;;;;;5.96;70.59;99101.13;4176846;28;19979;-70
2024/03/24 03:54:38;;;;;;;;;;;;;;;6.07;70.31;99102.84;4176622;28;19916;-69
2024/03/24 03:56:38;;;;;;;;;;;;;;;6.29;70.41;99104.41;4175117;28;19912;-71
2024/03/24 03:58:41;;;;;;;;;;;;;;;6.17;70.23;99102.84;4166702;28;20345;-68
2024/03/24 04:00:42;;;;;;;;;;;;;;;6.15;70.15;99104.78;4148559;28;20362;-69
2024/03/24 04:02:47;;;;;;;;;;;;;;;6.21;70.13;99113.03;4147630;28;20003;-69
2024/03/24 04:04:49;;;;;;;;;;;;;;;6.53;69.35;99095.13;4165067;28;19909;-69
2024/03/24 04:06:50;;;;;;;;;;;;;;;6.52;68.90;99104.06;4165130;28;19909;-67
2024/03/24 04:08:51;;;;;;;;;;;;;;;6.44;68.78;99102.16;4175054;28;19999;-69
2024/03/24 04:10:51;;;;;;;;;;;;;;;6.22;69.31;99092.66;4181876;28;19909;-69
2024/03/24 04:12:51;;;;;;;;;;;;;;;6.47;68.75;99095.72;4181950;28;19909;-68
2024/03/24 04:14:52;;;;;;;;;;;;;;;6.21;69.24;99091.81;4181632;28;19909;-69
2024/03/24 04:16:53;;;;;;;;;;;;;;;6.15;69.70;99096.84;4183748;28;19909;-71
2024/03/24 04:18:56;;;;;;;;;;;;;;;6.49;69.31;99088.44;4196960;28;19912;-72
2024/03/24 04:21:00;;;;;;;;;;;;;;;6.37;69.30;99083.28;4183885;28;19908;-69
2024/03/24 04:23:00;;;;;;;;;;;;;;;6.59;69.04;99081.31;4181379;28;19917;-68
2024/03/24 04:25:01;;;;;;;;;;;;;;;6.13;69.98;99101.47;4164144;28;19975;-69
2024/03/24 04:27:01;;;;;;;;;;;;;;;6.27;70.70;99101.03;4181490;28;19951;-69
2024/03/24 04:29:01;;;;;;;;;;;;;;;6.12;71.45;99090.00;4191535;28;19949;-70
2024/03/24 04:31:05;;;;;;;;;;;;;;;6.19;72.66;99100.91;4199535;28;20164;-71
2024/03/24 04:33:06;;;;;;;;;;;;;;;6.45;71.59;99102.97;4181223;28;19909;-72
2024/03/24 04:35:08;;;;;;;;;;;;;;;6.29;71.48;99109.69;4199117;28;20013;-69
2024/03/24 04:37:08;;;;;;;;;;;;;;;6.04;71.96;99105.78;4199001;28;20323;-70
2024/03/24 04:39:12;;;;;;;;;;;;;;;5.89;72.51;99102.66;4192796;28;19909;-73
2024/03/24 04:41:12;;;;;;;;;;;;;;;6.01;72.41;99098.94;4197331;28;19935;-71
2024/03/24 04:43:15;;;;;;;;;;;;;;;6.09;72.08;99099.09;4195033;28;19936;-69
2024/03/24 04:45:15;;;;;;;;;;;;;;;6.01;72.31;99096.28;4185506;28;19908;-70
2024/03/24 04:47:16;;;;;;;;;;;;;;;6.15;72.28;99100.34;4191847;28;19915;-72
2024/03/24 04:49:17;;;;;;;;;;;;;;;6.13;71.80;99088.19;4174079;28;19909;-69
2024/03/24 04:51:19;;;;;;;;;;;;;;;6.06;72.29;99091.38;4187523;28;19947;-70
2024/03/24 04:53:19;;;;;;;;;;;;;;;6.19;72.15;99083.16;4182037;28;20042;-69
2024/03/24 04:55:20;;;;;;;;;;;;;;;6.12;72.06;99087.34;4181543;28;19912;-70
2024/03/24 04:57:20;;;;;;;;;;;;;;;6.37;71.48;99090.44;4186416;28;19943;-68
2024/03/24 04:59:20;;;;;;;;;;;;;;;6.06;72.06;99094.03;4181303;28;19909;-69
2024/03/24 05:01:21;;;;;;;;;;;;;;;5.92;71.84;99100.56;4181438;28;20391;-69
2024/03/24 05:03:22;;;;;;;;;;;;;;;5.87;71.76;99100.16;4181127;28;20356;-68
2024/03/24 05:05:22;;;;;;;;;;;;;;;5.94;71.65;99095.13;4181514;28;19915;-68
2024/03/24 05:07:23;;;;;;;;;;;;;;;6.02;71.01;99082.06;4181060;28;20341;-68
2024/03/24 05:09:23;;;;;;;;;;;;;;;5.81;71.27;99089.25;4181030;28;19913;-70
2024/03/24 05:11:25;;;;;;;;;;;;;;;5.89;71.03;99081.44;4180995;28;19908;-68
2024/03/24 05:13:25;;;;;;;;;;;;;;;6.05;70.70;99078.28;4163575;28;19909;-69
2024/03/24 05:15:25;;;;;;;;;;;;;;;5.83;70.85;99087.31;4162713;28;19943;-69
2024/03/24 05:17:26;;;;;;;;;;;;;;;6.02;70.91;99110.38;4180167;28;20369;-68
2024/03/24 05:19:26;;;;;;;;;;;;;;;5.99;70.41;99095.59;4180755;28;19908;-69
2024/03/24 05:21:26;;;;;;;;;;;;;;;5.95;70.38;99096.81;4180032;28;19916;-68
2024/03/24 05:23:27;;;;;;;;;;;;;;;5.89;70.13;99100.88;4180691;28;19919;-68
2024/03/24 05:25:29;;;;;;;;;;;;;;;6.29;69.21;99098.22;4180775;28;20379;-70
2024/03/24 05:27:30;;;;;;;;;;;;;;;6.16;69.19;99099.38;4180195;28;20523;-69
2024/03/24 05:29:30;;;;;;;;;;;;;;;6.32;69.02;99098.81;4180990;28;19916;-69
2024/03/24 05:31:31;;;;;;;;;;;;;;;6.20;68.87;99098.09;4180414;28;20351;-69
2024/03/24 05:33:33;;;;;;;;;;;;;;;6.08;69.41;99108.03;4180411;28;19908;-71
2024/03/24 05:35:34;;;;;;;;;;;;;;;5.98;69.53;99112.44;4180663;28;19933;-68
2024/03/24 05:37:34;;;;;;;;;;;;;;;6.26;68.90;99104.66;4162524;28;20007;-68
2024/03/24 05:39:35;;;;;;;;;;;;;;;6.46;68.21;99094.03;4162416;28;19959;-68
2024/03/24 05:41:35;;;;;;;;;;;;;;;6.20;68.44;99099.94;4163089;28;20325;-69
2024/03/24 05:43:36;;;;;;;;;;;;;;;6.23;68.60;99097.00;4189878;28;19916;-69
2024/03/24 05:45:36;;;;;;;;;;;;;;;6.34;68.34;99096.84;4176080;28;19909;-69
2024/03/24 05:47:36;;;;;;;;;;;;;;;6.22;69.07;99097.97;4193640;28;20472;-70
2024/03/24 05:49:37;;;;;;;;;;;;;;;6.13;69.00;99101.47;4193617;28;19912;-70
2024/03/24 05:51:37;;;;;;;;;;;;;;;6.23;68.57;99110.28;4175360;28;20008;-69
2024/03/24 05:53:38;;;;;;;;;;;;;;;6.08;69.31;99108.03;4192702;28;20471;-69
2024/03/24 05:55:38;;;;;;;;;;;;;;;6.01;69.79;99106.91;4165620;28;20359;-69
2024/03/24 05:57:39;;;;;;;;;;;;;;;6.44;68.04;99119.88;4161913;28;20020;-69
2024/03/24 05:59:39;;;;;;;;;;;;;;;6.26;68.27;99117.94;4180413;28;20312;-69
2024/03/24 06:01:39;;;;;;;;;;;;;;;6.22;69.30;99104.09;4180146;28;19908;-70
2024/03/24 06:03:40;;;;;;;;;;;;;;;6.42;69.14;99116.56;4179896;28;20398;-69
2024/03/24 06:05:41;;;;;;;;;;;;;;;6.43;69.07;99115.53;4180975;28;19915;-70
2024/03/24 06:07:41;;;;;;;;;;;;;;;6.33;69.71;99115.56;4186817;28;19917;-69
2024/03/24 06:09:42;;;;;;;;;;;;;;;6.12;70.34;99128.97;4193510;28;19908;-72
2024/03/24 06:11:43;;;;;;;;;;;;;;;6.28;70.86;99123.94;4196676;28;19909;-69
2024/03/24 06:13:44;;;;;;;;;;;;;;;6.35;70.14;99130.38;4193345;28;19909;-69
2024/03/24 06:15:44;;;;;;;;;;;;;;;6.29;70.33;99122.13;4172467;28;19967;-69
2024/03/24 06:17:45;;;;;;;;;;;;;;;6.10;70.42;99123.78;4189107;28;19920;-68
2024/03/24 06:19:45;;;;;;;;;;;;;;;6.14;70.31;99121.72;4189069;28;19908;-71
2024/03/24 06:21:45;;;;;;;;;;;;;;;6.14;69.57;99125.19;4174112;28;19913;-70
2024/03/24 06:23:46;;;;;;;;;;;;;;;6.47;68.45;99132.88;4174400;28;19917;-69
2024/03/24 06:25:47;;;;;;;;;;;;;;;6.42;68.20;99130.66;4189384;28;19948;-69
2024/03/24 06:27:48;;;;;;;;;;;;;;;6.59;67.39;99126.47;4193747;28;19921;-72
2024/03/24 06:29:48;;;;;;;;;;;;;;;6.68;67.37;99132.72;4178803;28;20093;-70
2024/03/24 06:31:48;;;;;;;;;;;;;;;6.85;67.41;99133.81;4170635;28;19992;-70
2024/03/24 06:33:49;;;;;;;;;;;;;;;6.24;67.85;99133.16;4189065;28;19912;-69
2024/03/24 06:35:50;;;;;;;;;;;;;;;6.22;67.75;99140.44;4168395;28;19995;-70
2024/03/24 06:37:50;;;;;;;;;;;;;;;6.21;68.04;99139.59;4181466;28;19916;-68
2024/03/24 06:39:51;;;;;;;;;;;;;;;6.62;67.27;99131.47;4162608;28;20008;-69
2024/03/24 06:41:52;;;;;;;;;;;;;;;6.64;67.01;99134.81;4160715;28;20461;-69
2024/03/24 06:43:53;;;;;;;;;;;;;;;6.62;67.05;99125.31;4187082;28;20280;-67
2024/03/24 06:45:54;;;;;;;;;;;;;;;6.53;66.72;99130.50;4190423;28;19916;-68
2024/03/24 06:47:55;;;;;;;;;;;;;;;6.75;66.43;99133.84;4193676;28;19924;-68
2024/03/24 06:49:56;;;;;;;;;;;;;;;6.85;66.37;99128.50;4190133;28;19908;-68
2024/03/24 06:51:56;;;;;;;;;;;;;;;6.62;66.32;99131.47;4185741;28;19935;-69
2024/03/24 06:53:57;;;;;;;;;;;;;;;6.83;66.35;99130.44;4160437;28;19931;-69
2024/03/24 06:55:57;;;;;;;;;;;;;;;6.72;66.09;99121.66;4192828;28;20446;-67
2024/03/24 06:57:58;;;;;;;;;;;;;;;6.84;65.97;99119.72;4193028;28;19913;-68
2024/03/24 06:59:58;;;;;;;;;;;;;;;6.47;66.48;99119.59;4195231;28;19950;-68
2024/03/24 07:01:58;;;;;;;;;;;;;;;6.64;65.87;99108.25;4195301;28;19931;-67
2024/03/24 07:03:59;;;;;;;;;;;;;;;6.47;65.26;99114.31;4195815;28;19920;-68
2024/03/24 07:05:59;;;;;;;;;;;;;;;6.47;65.86;99116.94;4195057;28;19912;-70
2024/03/24 07:07:59;;;;;;;;;;;;;;;6.63;66.06;99111.06;4192205;28;19967;-69
2024/03/24 07:10:00;;;;;;;;;;;;;;;7.01;64.86;99107.47;4194969;28;19984;-72
2024/03/24 07:12:00;;;;;;;;;;;;;;;7.26;64.14;99104.31;4179260;28;19905;-68
2024/03/24 07:14:00;;;;;;;;;;;;;;;7.22;63.97;99111.75;4195913;28;19931;-69
2024/03/24 07:16:01;;;;;;;;;;;;;;;7.34;63.36;99110.56;4196739;28;19920;-67
2024/03/24 07:18:01;;;;;;;;;;;;;;;7.18;63.52;99105.03;4178390;28;19913;-68
2024/03/24 07:20:02;;;;;;;;;;;;;;;7.15;63.02;99121.28;4189651;28;19916;-68
2024/03/24 07:22:03;;;;;;;;;;;;;;;7.29;63.00;99115.47;4172251;28;19908;-67
2024/03/24 07:24:05;;;;;;;;;;;;;;;6.95;63.94;99110.72;4186968;28;19987;-68
2024/03/24 07:26:05;;;;;;;;;;;;;;;7.01;63.11;99123.41;4181507;28;19917;-68
2024/03/24 07:28:06;;;;;;;;;;;;;;;7.22;62.59;99114.41;4171391;28;19913;-68
2024/03/24 07:30:07;;;;;;;;;;;;;;;6.92;62.73;99121.63;4180407;28;19913;-69
2024/03/24 07:32:08;;;;;;;;;;;;;;;7.02;62.24;99106.50;4190350;28;19916;-67
2024/03/24 07:34:08;;;;;;;;;;;;;;;6.96;62.26;99114.19;4171385;28;19921;-67
2024/03/24 07:36:08;;;;;;;;;;;;;;;7.09;61.66;99116.53;4181490;28;20360;-68
2024/03/24 07:38:11;;;;;;;;;;;;;;;7.30;61.34;99117.16;4179712;28;19962;-68
2024/03/24 07:40:11;;;;;;;;;;;;;;;7.45;61.25;99114.03;4174113;28;20324;-68
2024/03/24 07:42:12;;;;;;;;;;;;;;;7.79;60.46;99121.41;4166907;28;19917;-68
2024/03/24 07:44:12;;;;;;;;;;;;;;;7.70;60.34;99109.00;4164498;28;20003;-67
2024/03/24 07:46:13;;;;;;;;;;;;;;;7.62;60.20;99109.72;4164042;28;19913;-67
2024/03/24 07:48:13;;;;;;;;;;;;;;;8.11;59.40;99109.44;4163676;28;20373;-66
2024/03/24 07:50:14;;;;;;;;;;;;;;;7.80;59.13;99110.59;4168783;28;19912;-67
2024/03/24 07:52:14;;;;;;;;;;;;;;;7.95;58.77;99118.91;4162096;28;19916;-68
2024/03/24 07:54:15;;;;;;;;;;;;;;;8.00;58.53;99114.97;4180936;28;19951;-67
2024/03/24 07:56:15;;;;;;;;;;;;;;;8.11;58.47;99107.59;4179515;28;19909;-66
2024/03/24 07:58:16;;;;;;;;;;;;;;;8.45;57.62;99114.03;4182766;28;19909;-68
2024/03/24 08:00:16;;;;;;;;;;;;;;;8.35;58.26;99118.59;4188020;28;19909;-67
2024/03/24 08:02:16;;;;;;;;;;;;;;;8.07;58.21;99116.88;4190108;28;20384;-67
2024/03/24 08:04:17;;;;;;;;;;;;;;;8.06;58.29;99125.00;4188605;28;19908;-67
2024/03/24 08:06:17;;;;;;;;;;;;;;;7.85;58.01;99118.13;4164429;28;19916;-67
2024/03/24 08:08:18;;;;;;;;;;;;;;;8.02;58.01;99123.63;4155083;28;20559;-67
2024/03/24 08:10:18;;;;;;;;;;;;;;;7.83;58.56;99129.91;4168255;28;19912;-68
2024/03/24 08:12:19;;;;;;;;;;;;;;;7.97;57.93;99122.25;4177030;28;19917;-68
2024/03/24 08:14:20;;;;;;;;;;;;;;;7.57;58.29;99112.81;4176975;28;20364;-67
2024/03/24 08:16:21;;;;;;;;;;;;;;;7.55;58.96;99116.63;4177800;28;19948;-67
2024/03/24 08:18:22;;;;;;;;;;;;;;;7.85;58.35;99115.47;4173968;28;19908;-68
2024/03/24 08:20:24;;;;;;;;;;;;;;;7.84;58.27;99128.94;4165627;28;19975;-67
2024/03/24 08:22:25;;;;;;;;;;;;;;;7.85;58.04;99117.31;4147539;28;19917;-68
2024/03/24 08:24:25;;;;;;;;;;;;;;;7.95;57.61;99113.56;4164864;28;20400;-68
2024/03/24 08:26:26;;;;;;;;;;;;;;;8.04;58.12;99121.63;4170417;28;19915;-68
2024/03/24 08:28:26;;;;;;;;;;;;;;;7.80;58.07;99120.41;4173156;28;19916;-68
2024/03/24 08:30:27;;;;;;;;;;;;;;;8.15;57.43;99121.44;4173126;28;19909;-68
2024/03/24 08:32:27;;;;;;;;;;;;;;;8.32;57.14;99124.22;4148084;28;19909;-67
2024/03/24 08:34:28;;;;;;;;;;;;;;;7.68;57.89;99111.81;4164798;28;19909;-68
2024/03/24 08:36:28;;;;;;;;;;;;;;;7.58;58.21;99109.19;4164496;28;19959;-67
2024/03/24 08:38:28;;;;;;;;;;;;;;;7.57;57.99;99104.03;4164918;28;20011;-67
2024/03/24 08:40:29;;;;;;;;;;;;;;;7.83;57.76;99103.31;4164812;28;19919;-66
2024/03/24 08:42:29;;;;;;;;;;;;;;;7.68;57.80;99110.94;4164167;28;20365;-68
2024/03/24 08:44:29;;;;;;;;;;;;;;;7.61;57.76;99105.38;4164836;28;20389;-68
2024/03/24 08:46:30;;;;;;;;;;;;;;;7.87;57.77;99102.84;4146719;28;19947;-68
2024/03/24 08:48:30;;;;;;;;;;;;;;;8.03;57.57;99101.38;4164657;28;20388;-68
2024/03/24 08:50:31;;;;;;;;;;;;;;;8.27;57.02;99101.56;4164881;28;20461;-69
2024/03/24 08:52:31;;;;;;;;;;;;;;;8.02;56.90;99095.19;4165030;28;19927;-68
2024/03/24 08:54:32;;;;;;;;;;;;;;;7.79;56.91;99098.28;4164846;28;19952;-66
2024/03/24 08:56:32;;;;;;;;;;;;;;;7.73;56.68;99103.38;4164424;28;20550;-66
2024/03/24 08:58:32;;;;;;;;;;;;;;;7.84;56.98;99100.47;4164383;28;19980;-66
2024/03/24 09:00:34;;;;;;;;;;;;;;;8.30;56.25;99099.59;4146977;28;20398;-66
2024/03/24 09:02:35;;;;;;;;;;;;;;;7.89;56.58;99098.22;4164334;28;20008;-66
2024/03/24 09:04:35;;;;;;;;;;;;;;;8.06;56.22;99095.72;4164125;28;19990;-66
2024/03/24 09:06:36;;;;;;;;;;;;;;;8.34;55.65;99084.97;4163820;28;19948;-66
2024/03/24 09:08:37;;;;;;;;;;;;;;;8.20;56.21;99097.84;4169336;28;20272;-66
2024/03/24 09:10:37;;;;;;;;;;;;;;;8.58;56.04;99090.53;4162444;28;19917;-66
2024/03/24 09:12:38;;;;;;;;;;;;;;;8.72;55.79;99089.16;4181041;28;19913;-65
2024/03/24 09:14:39;;;;;;;;;;;;;;;8.52;56.01;99087.66;4180876;28;20322;-65
2024/03/24 09:16:39;;;;;;;;;;;;;;;8.61;55.96;99085.88;4181187;28;19920;-67
2024/03/24 09:18:39;;;;;;;;;;;;;;;8.32;56.40;99094.94;4180670;28;20272;-66
2024/03/24 09:20:40;;;;;;;;;;;;;;;8.39;55.55;99099.50;4179068;28;19915;-68
2024/03/24 09:22:40;;;;;;;;;;;;;;;8.71;54.95;99087.47;4180442;28;20392;-67
2024/03/24 09:24:40;;;;;;;;;;;;;;;8.37;56.06;99095.34;4180324;28;19908;-67
2024/03/24 09:26:41;;;;;;;;;;;;;;;8.46;56.41;99097.06;4162409;28;19909;-67
2024/03/24 09:28:41;;;;;;;;;;;;;;;8.40;56.69;99101.19;4162811;28;20380;-67
2024/03/24 09:30:42;;;;;;;;;;;;;;;8.57;55.67;99091.53;4179230;28;19987;-67
2024/03/24 09:32:42;;;;;;;;;;;;;;;8.48;56.22;99087.13;4161206;28;20369;-67
2024/03/24 09:34:43;;;;;;;;;;;;;;;8.58;56.17;99092.34;4180448;28;19991;-67
2024/03/24 09:36:43;;;;;;;;;;;;;;;8.18;57.27;99089.19;4180963;28;20344;-67
2024/03/24 09:38:44;;;;;;;;;;;;;;;8.26;57.61;99088.44;4174293;28;19958;-67
2024/03/24 09:40:45;;;;;;;;;;;;;;;8.59;57.23;99088.69;4164070;28;20004;-67
2024/03/24 09:42:49;;;;;;;;;;;;;;;8.79;56.66;99099.16;4175622;28;19968;-67
2024/03/24 09:44:50;;;;;;;;;;;;;;;8.63;56.69;99089.22;4168819;28;19909;-67
2024/03/24 09:46:51;;;;;;;;;;;;;;;8.46;56.80;99083.75;4163205;28;19959;-67
2024/03/24 09:48:54;;;;;;;;;;;;;;;8.79;55.96;99088.50;4163960;28;20386;-68
2024/03/24 09:50:55;;;;;;;;;;;;;;;8.63;56.37;99084.75;4164266;28;19908;-68
2024/03/24 09:52:56;;;;;;;;;;;;;;;8.69;56.11;99107.28;4164624;28;20411;-67
2024/03/24 09:54:57;;;;;;;;;;;;;;;8.83;55.37;99087.22;4164935;28;19909;-67
2024/03/24 09:56:57;;;;;;;;;;;;;;;8.87;55.86;99088.56;4164933;28;19913;-67
2024/03/24 09:59:02;;;;;;;;;;;;;;;8.71;55.86;99087.47;4164597;28;19913;-67
2024/03/24 10:01:03;;;;;;;;;;;;;;;8.64;56.06;99086.44;4164360;28;19915;-68
2024/03/24 10:03:04;;;;;;;;;;;;;;;8.50;56.38;99084.31;4163976;28;19939;-67
2024/03/24 10:05:04;;;;;;;;;;;;;;;8.95;55.21;99099.25;4166853;28;20172;-67
2024/03/24 10:07:04;;;;;;;;;;;;;;;9.03;55.21;99096.63;4179551;28;19909;-67
2024/03/24 10:09:05;;;;;;;;;;;;;;;8.93;55.54;99085.25;4181817;28;19939;-68
2024/03/24 10:11:25;;;;;;;;;;;;;;;9.05;54.88;99094.66;4174321;28;19909;-71
2024/03/24 10:13:41;;;;;;;;;;;;;;;8.57;55.29;99064.03;4177918;28;19909;-68
2024/03/24 10:15:43;;;;;;;;;;;;;;;8.73;55.31;99092.63;4177780;28;19916;-69
2024/03/24 10:17:43;;;;;;;;;;;;;;;8.65;55.24;99090.72;4170304;28;19908;-68
2024/03/24 10:19:44;;;;;;;;;;;;;;;8.73;54.79;99079.31;4161452;28;20658;-68
2024/03/24 10:21:45;;;;;;;;;;;;;;;8.91;54.58;99087.25;4170381;28;19995;-68
2024/03/24 10:23:46;;;;;;;;;;;;;;;8.89;54.70;99095.38;4170758;28;19920;-68
2024/03/24 10:25:57;;;;;;;;;;;;;;;8.72;54.87;99091.81;4172765;28;19909;-68
2024/03/24 10:27:58;;;;;;;;;;;;;;;8.48;55.40;99094.28;4168764;28;19913;-70
2024/03/24 10:29:58;;;;;;;;;;;;;;;8.89;54.60;99090.06;4164778;28;19963;-68
2024/03/24 10:31:58;;;;;;;;;;;;;;;8.79;54.99;99089.31;4158247;28;19913;-68
2024/03/24 10:33:59;;;;;;;;;;;;;;;8.43;55.36;99086.72;4163911;28;19912;-67
2024/03/24 10:36:00;;;;;;;;;;;;;;;8.70;54.56;99084.94;4163592;28;19913;-67
2024/03/24 10:38:00;;;;;;;;;;;;;;;8.93;54.51;99095.91;4158210;28;20027;-68